sensor_id;sensor_type;location;lat;lon;timestamp;temperature;humidity
27413;DHT22;14871;52.702;5.230;2023-04-23T00:00:20;12.20;99.90
27413;DHT22;14871;52.702;5.230;2023-04-23T00:02:47;12.30;99.90
27413;DHT22;14871;52.702;5.230;2023-04-23T00:05:18;12.20;99.90
27413;DHT22;14871;52.702;5.230;2023-04-23T00:07:44;12.20;99.90
27413;DHT22;14871;52.702;5.230;2023-04-23T00:10:10;12.40;99.90
27413;DHT22;14871;52.702;5.230;2023-04-23T00:12:36;12.30;99.90
27413;DHT22;14871;52.702;5.230;2023-04-23T00:15:03;12.40;99.90
27413;DHT22;14871;52.702;5.230;2023-04-23T00:17:29;12.30;99.90
27413;DHT22;14871;52.702;5.230;2023-04-23T00:19:55;12.40;99.90
27413;DHT22;14871;52.702;5.230;2023-04-23T00:22:21;12.30;99.90
27413;DHT22;14871;52.702;5.230;2023-04-23T00:24:47;12.30;99.90
27413;DHT22;14871;52.702;5.230;2023-04-23T00:27:13;12.20;99.90
27413;DHT22;14871;52.702;5.230;2023-04-23T00:29:38;12.20;99.90
27413;DHT22;14871;52.702;5.230;2023-04-23T00:32:05;12.30;99.90
27413;DHT22;14871;52.702;5.230;2023-04-23T00:34:31;12.20;99.90
27413;DHT22;14871;52.702;5.230;2023-04-23T00:37:00;12.30;99.90
27413;DHT22;14871;52.702;5.230;2023-04-23T00:39:30;12.30;99.90
27413;DHT22;14871;52.702;5.230;2023-04-23T00:41:55;12.20;99.90
27413;DHT22;14871;52.702;5.230;2023-04-23T00:44:21;12.00;99.90
27413;DHT22;14871;52.702;5.230;2023-04-23T00:46:47;12.10;99.90
27413;DHT22;14871;52.702;5.230;2023-04-23T00:49:13;11.90;99.90
27413;DHT22;14871;52.702;5.230;2023-04-23T00:51:40;12.00;99.90
27413;DHT22;14871;52.702;5.230;2023-04-23T00:54:05;11.80;99.90
27413;DHT22;14871;52.702;5.230;2023-04-23T00:56:32;11.90;99.90
27413;DHT22;14871;52.702;5.230;2023-04-23T00:58:58;11.70;99.90
27413;DHT22;14871;52.702;5.230;2023-04-23T01:01:24;11.70;99.90
27413;DHT22;14871;52.702;5.230;2023-04-23T01:03:50;11.60;99.90
27413;DHT22;14871;52.702;5.230;2023-04-23T01:06:17;11.40;99.90
27413;DHT22;14871;52.702;5.230;2023-04-23T01:08:44;11.50;99.90
27413;DHT22;14871;52.702;5.230;2023-04-23T01:11:12;11.40;99.90
27413;DHT22;14871;52.702;5.230;2023-04-23T01:13:39;11.50;99.90
27413;DHT22;14871;52.702;5.230;2023-04-23T01:16:06;11.60;99.90
27413;DHT22;14871;52.702;5.230;2023-04-23T01:18:32;11.60;99.90
27413;DHT22;14871;52.702;5.230;2023-04-23T01:20:58;11.50;99.90
27413;DHT22;14871;52.702;5.230;2023-04-23T01:23:24;11.60;99.90
27413;DHT22;14871;52.702;5.230;2023-04-23T01:25:52;11.60;99.90
27413;DHT22;14871;52.702;5.230;2023-04-23T01:28:18;11.50;99.90
27413;DHT22;14871;52.702;5.230;2023-04-23T01:30:44;11.60;99.90
27413;DHT22;14871;52.702;5.230;2023-04-23T01:33:10;11.60;99.90
27413;DHT22;14871;52.702;5.230;2023-04-23T01:35:36;11.60;99.90
27413;DHT22;14871;52.702;5.230;2023-04-23T01:38:07;11.70;99.90
27413;DHT22;14871;52.702;5.230;2023-04-23T01:40:33;11.50;99.90
27413;DHT22;14871;52.702;5.230;2023-04-23T01:42:59;11.50;99.90
27413;DHT22;14871;52.702;5.230;2023-04-23T01:45:25;11.40;99.90
27413;DHT22;14871;52.702;5.230;2023-04-23T01:47:51;11.40;99.90
27413;DHT22;14871;52.702;5.230;2023-04-23T01:50:17;11.20;99.90
27413;DHT22;14871;52.702;5.230;2023-04-23T01:52:43;11.20;99.90
27413;DHT22;14871;52.702;5.230;2023-04-23T01:55:10;11.20;99.90
27413;DHT22;14871;52.702;5.230;2023-04-23T01:57:36;11.20;99.90
27413;DHT22;14871;52.702;5.230;2023-04-23T02:00:07;11.20;99.90
27413;DHT22;14871;52.702;5.230;2023-04-23T02:02:34;11.50;99.90
27413;DHT22;14871;52.702;5.230;2023-04-23T02:05:00;11.30;99.90
27413;DHT22;14871;52.702;5.230;2023-04-23T02:07:33;11.40;99.90
27413;DHT22;14871;52.702;5.230;2023-04-23T02:09:59;11.40;99.90
27413;DHT22;14871;52.702;5.230;2023-04-23T02:12:25;11.50;99.90
27413;DHT22;14871;52.702;5.230;2023-04-23T02:14:52;11.40;99.90
27413;DHT22;14871;52.702;5.230;2023-04-23T02:17:19;11.40;99.90
27413;DHT22;14871;52.702;5.230;2023-04-23T02:19:45;11.50;99.90
27413;DHT22;14871;52.702;5.230;2023-04-23T02:22:11;11.40;99.90
27413;DHT22;14871;52.702;5.230;2023-04-23T02:24:37;11.40;99.90
27413;DHT22;14871;52.702;5.230;2023-04-23T02:27:03;11.50;99.90
27413;DHT22;14871;52.702;5.230;2023-04-23T02:29:29;11.40;99.90
27413;DHT22;14871;52.702;5.230;2023-04-23T02:31:55;11.40;99.90
27413;DHT22;14871;52.702;5.230;2023-04-23T02:34:21;11.40;99.90
27413;DHT22;14871;52.702;5.230;2023-04-23T02:36:46;11.50;99.90
27413;DHT22;14871;52.702;5.230;2023-04-23T02:39:12;11.60;99.90
27413;DHT22;14871;52.702;5.230;2023-04-23T02:41:37;11.50;99.90
27413;DHT22;14871;52.702;5.230;2023-04-23T02:44:03;11.50;99.90
27413;DHT22;14871;52.702;5.230;2023-04-23T02:46:29;11.40;99.90
27413;DHT22;14871;52.702;5.230;2023-04-23T02:48:56;11.40;99.90
27413;DHT22;14871;52.702;5.230;2023-04-23T02:51:21;11.50;99.90
27413;DHT22;14871;52.702;5.230;2023-04-23T02:53:47;11.50;99.90
27413;DHT22;14871;52.702;5.230;2023-04-23T02:56:13;11.60;99.90
27413;DHT22;14871;52.702;5.230;2023-04-23T02:58:39;11.50;99.90
27413;DHT22;14871;52.702;5.230;2023-04-23T03:01:04;11.50;99.90
27413;DHT22;14871;52.702;5.230;2023-04-23T03:03:31;11.50;99.90
27413;DHT22;14871;52.702;5.230;2023-04-23T03:05:58;11.60;99.90
27413;DHT22;14871;52.702;5.230;2023-04-23T03:08:23;11.70;99.90
27413;DHT22;14871;52.702;5.230;2023-04-23T03:10:49;11.70;99.90
27413;DHT22;14871;52.702;5.230;2023-04-23T03:13:15;11.70;99.90
27413;DHT22;14871;52.702;5.230;2023-04-23T03:15:41;11.90;99.90
27413;DHT22;14871;52.702;5.230;2023-04-23T03:18:06;11.80;99.90
27413;DHT22;14871;52.702;5.230;2023-04-23T03:20:33;12.00;99.90
27413;DHT22;14871;52.702;5.230;2023-04-23T03:22:59;12.00;99.90
27413;DHT22;14871;52.702;5.230;2023-04-23T03:25:24;11.90;99.90
27413;DHT22;14871;52.702;5.230;2023-04-23T03:27:51;11.60;99.90
27413;DHT22;14871;52.702;5.230;2023-04-23T03:30:18;11.70;99.90
27413;DHT22;14871;52.702;5.230;2023-04-23T03:32:43;11.80;99.90
27413;DHT22;14871;52.702;5.230;2023-04-23T03:35:09;11.80;99.90
27413;DHT22;14871;52.702;5.230;2023-04-23T03:37:35;11.80;99.90
27413;DHT22;14871;52.702;5.230;2023-04-23T03:40:01;11.70;99.90
27413;DHT22;14871;52.702;5.230;2023-04-23T03:42:32;11.80;99.90
27413;DHT22;14871;52.702;5.230;2023-04-23T03:44:59;11.80;99.90
27413;DHT22;14871;52.702;5.230;2023-04-23T03:47:24;11.90;99.90
27413;DHT22;14871;52.702;5.230;2023-04-23T03:49:51;11.90;99.90
27413;DHT22;14871;52.702;5.230;2023-04-23T03:52:17;12.00;99.90
27413;DHT22;14871;52.702;5.230;2023-04-23T03:54:42;11.90;99.90
27413;DHT22;14871;52.702;5.230;2023-04-23T03:57:09;11.80;99.90
27413;DHT22;14871;52.702;5.230;2023-04-23T03:59:36;11.80;99.90
27413;DHT22;14871;52.702;5.230;2023-04-23T04:02:02;11.80;99.90
27413;DHT22;14871;52.702;5.230;2023-04-23T04:04:31;11.60;99.90
27413;DHT22;14871;52.702;5.230;2023-04-23T04:06:58;11.70;99.90
27413;DHT22;14871;52.702;5.230;2023-04-23T04:09:27;11.70;99.90
27413;DHT22;14871;52.702;5.230;2023-04-23T04:11:53;11.50;99.90
27413;DHT22;14871;52.702;5.230;2023-04-23T04:14:19;11.60;99.90
27413;DHT22;14871;52.702;5.230;2023-04-23T04:16:45;11.60;99.90
27413;DHT22;14871;52.702;5.230;2023-04-23T04:19:11;11.60;99.90
27413;DHT22;14871;52.702;5.230;2023-04-23T04:21:36;11.60;99.90
27413;DHT22;14871;52.702;5.230;2023-04-23T04:24:02;11.60;99.90
27413;DHT22;14871;52.702;5.230;2023-04-23T04:26:31;11.60;99.90
27413;DHT22;14871;52.702;5.230;2023-04-23T04:28:59;11.50;99.90
27413;DHT22;14871;52.702;5.230;2023-04-23T04:31:26;11.50;99.90
27413;DHT22;14871;52.702;5.230;2023-04-23T04:33:56;11.60;99.90
27413;DHT22;14871;52.702;5.230;2023-04-23T04:36:22;11.50;99.90
27413;DHT22;14871;52.702;5.230;2023-04-23T04:38:50;11.40;99.90
27413;DHT22;14871;52.702;5.230;2023-04-23T04:41:17;11.40;99.90
27413;DHT22;14871;52.702;5.230;2023-04-23T04:43:44;11.80;99.90
27413;DHT22;14871;52.702;5.230;2023-04-23T04:46:11;11.70;99.90
27413;DHT22;14871;52.702;5.230;2023-04-23T04:48:37;11.60;99.90
27413;DHT22;14871;52.702;5.230;2023-04-23T04:51:03;11.50;99.90
27413;DHT22;14871;52.702;5.230;2023-04-23T04:53:29;11.60;99.90
27413;DHT22;14871;52.702;5.230;2023-04-23T04:55:54;11.80;99.90
27413;DHT22;14871;52.702;5.230;2023-04-23T04:58:20;11.80;99.90
27413;DHT22;14871;52.702;5.230;2023-04-23T05:00:46;12.10;99.90
27413;DHT22;14871;52.702;5.230;2023-04-23T05:03:18;12.00;99.90
27413;DHT22;14871;52.702;5.230;2023-04-23T05:05:44;11.90;99.90
27413;DHT22;14871;52.702;5.230;2023-04-23T05:08:11;12.10;99.90
27413;DHT22;14871;52.702;5.230;2023-04-23T05:10:37;12.20;99.90
27413;DHT22;14871;52.702;5.230;2023-04-23T05:13:03;12.20;99.90
27413;DHT22;14871;52.702;5.230;2023-04-23T05:15:28;12.40;99.90
27413;DHT22;14871;52.702;5.230;2023-04-23T05:17:54;12.10;99.90
27413;DHT22;14871;52.702;5.230;2023-04-23T05:20:21;12.20;99.90
27413;DHT22;14871;52.702;5.230;2023-04-23T05:22:46;12.40;99.90
27413;DHT22;14871;52.702;5.230;2023-04-23T05:25:12;12.40;99.90
27413;DHT22;14871;52.702;5.230;2023-04-23T05:27:38;12.40;99.90
27413;DHT22;14871;52.702;5.230;2023-04-23T05:30:07;12.60;99.90
27413;DHT22;14871;52.702;5.230;2023-04-23T05:32:34;12.60;99.90
27413;DHT22;14871;52.702;5.230;2023-04-23T05:35:00;12.70;99.90
27413;DHT22;14871;52.702;5.230;2023-04-23T05:37:27;12.50;99.90
27413;DHT22;14871;52.702;5.230;2023-04-23T05:39:53;12.50;99.90
27413;DHT22;14871;52.702;5.230;2023-04-23T05:42:19;12.60;99.90
27413;DHT22;14871;52.702;5.230;2023-04-23T05:44:44;12.40;99.90
27413;DHT22;14871;52.702;5.230;2023-04-23T05:47:12;12.30;99.90
27413;DHT22;14871;52.702;5.230;2023-04-23T05:49:37;12.10;99.90
27413;DHT22;14871;52.702;5.230;2023-04-23T05:52:03;12.10;99.90
27413;DHT22;14871;52.702;5.230;2023-04-23T05:54:29;12.40;99.90
27413;DHT22;14871;52.702;5.230;2023-04-23T05:56:55;12.40;99.90
27413;DHT22;14871;52.702;5.230;2023-04-23T05:59:21;12.50;99.90
27413;DHT22;14871;52.702;5.230;2023-04-23T06:01:47;12.60;99.90
27413;DHT22;14871;52.702;5.230;2023-04-23T06:04:14;12.70;99.90
27413;DHT22;14871;52.702;5.230;2023-04-23T06:06:41;12.60;99.90
27413;DHT22;14871;52.702;5.230;2023-04-23T06:09:07;12.60;99.90
27413;DHT22;14871;52.702;5.230;2023-04-23T06:11:32;12.70;99.90
27413;DHT22;14871;52.702;5.230;2023-04-23T06:14:00;12.60;99.90
27413;DHT22;14871;52.702;5.230;2023-04-23T06:16:26;12.50;99.90
27413;DHT22;14871;52.702;5.230;2023-04-23T06:18:52;12.50;99.90
27413;DHT22;14871;52.702;5.230;2023-04-23T06:21:23;12.50;99.90
27413;DHT22;14871;52.702;5.230;2023-04-23T06:23:49;12.60;99.90
27413;DHT22;14871;52.702;5.230;2023-04-23T06:26:15;12.50;99.90
27413;DHT22;14871;52.702;5.230;2023-04-23T06:28:44;12.50;99.90
27413;DHT22;14871;52.702;5.230;2023-04-23T06:31:11;12.60;99.90
27413;DHT22;14871;52.702;5.230;2023-04-23T06:33:37;12.70;99.90
27413;DHT22;14871;52.702;5.230;2023-04-23T06:36:03;12.70;99.90
27413;DHT22;14871;52.702;5.230;2023-04-23T06:38:29;12.50;99.90
27413;DHT22;14871;52.702;5.230;2023-04-23T06:40:55;12.70;99.90
27413;DHT22;14871;52.702;5.230;2023-04-23T06:43:20;12.70;99.90
27413;DHT22;14871;52.702;5.230;2023-04-23T06:45:46;12.70;99.90
27413;DHT22;14871;52.702;5.230;2023-04-23T06:48:12;12.80;99.90
27413;DHT22;14871;52.702;5.230;2023-04-23T06:50:38;13.00;99.90
27413;DHT22;14871;52.702;5.230;2023-04-23T06:53:04;13.30;99.90
27413;DHT22;14871;52.702;5.230;2023-04-23T06:55:30;13.20;99.90
27413;DHT22;14871;52.702;5.230;2023-04-23T06:57:56;13.50;99.90
27413;DHT22;14871;52.702;5.230;2023-04-23T07:00:23;13.30;99.90
27413;DHT22;14871;52.702;5.230;2023-04-23T07:02:49;13.50;99.90
27413;DHT22;14871;52.702;5.230;2023-04-23T07:05:15;13.60;99.90
27413;DHT22;14871;52.702;5.230;2023-04-23T07:07:41;13.50;99.90
27413;DHT22;14871;52.702;5.230;2023-04-23T07:10:09;13.60;99.90
27413;DHT22;14871;52.702;5.230;2023-04-23T07:12:37;13.60;99.90
27413;DHT22;14871;52.702;5.230;2023-04-23T07:15:03;13.80;99.90
27413;DHT22;14871;52.702;5.230;2023-04-23T07:17:29;13.90;99.90
27413;DHT22;14871;52.702;5.230;2023-04-23T07:19:55;14.00;99.90
27413;DHT22;14871;52.702;5.230;2023-04-23T07:22:21;14.20;99.90
27413;DHT22;14871;52.702;5.230;2023-04-23T07:24:48;14.30;99.90
27413;DHT22;14871;52.702;5.230;2023-04-23T07:27:13;14.40;99.90
27413;DHT22;14871;52.702;5.230;2023-04-23T07:29:39;14.50;99.90
27413;DHT22;14871;52.702;5.230;2023-04-23T07:32:05;14.60;99.90
27413;DHT22;14871;52.702;5.230;2023-04-23T07:34:30;14.60;99.90
27413;DHT22;14871;52.702;5.230;2023-04-23T07:36:56;15.00;99.90
27413;DHT22;14871;52.702;5.230;2023-04-23T07:39:22;15.20;99.90
27413;DHT22;14871;52.702;5.230;2023-04-23T07:41:47;15.20;99.90
27413;DHT22;14871;52.702;5.230;2023-04-23T07:44:13;15.40;99.90
27413;DHT22;14871;52.702;5.230;2023-04-23T07:46:39;15.30;99.90
27413;DHT22;14871;52.702;5.230;2023-04-23T07:49:05;15.40;99.90
27413;DHT22;14871;52.702;5.230;2023-04-23T07:51:32;15.60;99.90
27413;DHT22;14871;52.702;5.230;2023-04-23T07:53:57;15.60;99.90
27413;DHT22;14871;52.702;5.230;2023-04-23T07:56:23;15.60;99.90
27413;DHT22;14871;52.702;5.230;2023-04-23T07:58:49;15.80;99.90
27413;DHT22;14871;52.702;5.230;2023-04-23T08:01:15;15.80;99.90
27413;DHT22;14871;52.702;5.230;2023-04-23T08:03:41;15.70;99.90
27413;DHT22;14871;52.702;5.230;2023-04-23T08:06:10;15.80;99.90
27413;DHT22;14871;52.702;5.230;2023-04-23T08:08:36;16.00;99.90
27413;DHT22;14871;52.702;5.230;2023-04-23T08:11:04;16.20;99.90
27413;DHT22;14871;52.702;5.230;2023-04-23T08:13:29;16.40;99.90
27413;DHT22;14871;52.702;5.230;2023-04-23T08:15:55;16.30;99.90
27413;DHT22;14871;52.702;5.230;2023-04-23T08:18:20;16.60;99.90
27413;DHT22;14871;52.702;5.230;2023-04-23T08:20:47;16.30;99.90
27413;DHT22;14871;52.702;5.230;2023-04-23T08:23:12;16.50;99.90
27413;DHT22;14871;52.702;5.230;2023-04-23T08:25:38;16.60;99.90
27413;DHT22;14871;52.702;5.230;2023-04-23T08:28:04;16.50;99.90
27413;DHT22;14871;52.702;5.230;2023-04-23T08:30:30;16.70;99.90
27413;DHT22;14871;52.702;5.230;2023-04-23T08:32:56;16.60;99.90
27413;DHT22;14871;52.702;5.230;2023-04-23T08:35:28;16.80;99.90
27413;DHT22;14871;52.702;5.230;2023-04-23T08:37:54;16.70;99.90
27413;DHT22;14871;52.702;5.230;2023-04-23T08:40:20;16.70;99.90
27413;DHT22;14871;52.702;5.230;2023-04-23T08:42:52;16.90;99.90
27413;DHT22;14871;52.702;5.230;2023-04-23T08:45:20;17.10;99.90
27413;DHT22;14871;52.702;5.230;2023-04-23T08:47:46;17.30;99.90
27413;DHT22;14871;52.702;5.230;2023-04-23T08:50:18;17.50;99.90
27413;DHT22;14871;52.702;5.230;2023-04-23T08:52:55;17.50;99.90
27413;DHT22;14871;52.702;5.230;2023-04-23T08:55:22;17.50;99.90
27413;DHT22;14871;52.702;5.230;2023-04-23T08:57:49;17.70;99.90
27413;DHT22;14871;52.702;5.230;2023-04-23T09:00:17;17.40;99.90
27413;DHT22;14871;52.702;5.230;2023-04-23T09:02:45;17.40;99.90
27413;DHT22;14871;52.702;5.230;2023-04-23T09:05:11;17.50;99.90
27413;DHT22;14871;52.702;5.230;2023-04-23T09:07:37;17.70;99.90
27413;DHT22;14871;52.702;5.230;2023-04-23T09:10:05;18.00;99.90
27413;DHT22;14871;52.702;5.230;2023-04-23T09:12:32;18.30;99.90
27413;DHT22;14871;52.702;5.230;2023-04-23T09:15:01;18.20;99.90
27413;DHT22;14871;52.702;5.230;2023-04-23T09:17:30;18.10;99.90
27413;DHT22;14871;52.702;5.230;2023-04-23T09:19:57;18.20;99.90
27413;DHT22;14871;52.702;5.230;2023-04-23T09:22:45;18.40;99.90
27413;DHT22;14871;52.702;5.230;2023-04-23T09:25:11;18.50;99.90
27413;DHT22;14871;52.702;5.230;2023-04-23T09:27:38;18.60;99.90
27413;DHT22;14871;52.702;5.230;2023-04-23T09:30:05;18.30;99.90
27413;DHT22;14871;52.702;5.230;2023-04-23T09:32:36;18.70;99.90
27413;DHT22;14871;52.702;5.230;2023-04-23T09:35:06;18.80;99.90
27413;DHT22;14871;52.702;5.230;2023-04-23T09:37:33;18.70;99.90
27413;DHT22;14871;52.702;5.230;2023-04-23T09:40:04;19.00;99.90
27413;DHT22;14871;52.702;5.230;2023-04-23T09:42:34;19.30;99.90
27413;DHT22;14871;52.702;5.230;2023-04-23T09:45:03;19.40;99.90
27413;DHT22;14871;52.702;5.230;2023-04-23T09:47:34;19.40;99.90
27413;DHT22;14871;52.702;5.230;2023-04-23T09:50:02;19.50;99.90
27413;DHT22;14871;52.702;5.230;2023-04-23T09:52:31;19.50;99.90
27413;DHT22;14871;52.702;5.230;2023-04-23T09:54:57;19.40;99.90
27413;DHT22;14871;52.702;5.230;2023-04-23T09:57:26;19.50;99.90
27413;DHT22;14871;52.702;5.230;2023-04-23T09:59:55;19.50;99.90
27413;DHT22;14871;52.702;5.230;2023-04-23T10:02:26;19.60;99.90
27413;DHT22;14871;52.702;5.230;2023-04-23T10:04:53;19.80;99.90
27413;DHT22;14871;52.702;5.230;2023-04-23T10:07:19;19.90;99.90
27413;DHT22;14871;52.702;5.230;2023-04-23T10:09:45;19.80;99.90
27413;DHT22;14871;52.702;5.230;2023-04-23T10:12:13;20.00;99.90
27413;DHT22;14871;52.702;5.230;2023-04-23T10:14:40;19.80;99.90
27413;DHT22;14871;52.702;5.230;2023-04-23T10:17:08;20.00;99.90
27413;DHT22;14871;52.702;5.230;2023-04-23T10:19:37;19.90;99.90
27413;DHT22;14871;52.702;5.230;2023-04-23T10:22:07;20.30;99.90
27413;DHT22;14871;52.702;5.230;2023-04-23T10:24:38;20.40;99.90
27413;DHT22;14871;52.702;5.230;2023-04-23T10:27:10;20.30;99.90
27413;DHT22;14871;52.702;5.230;2023-04-23T10:29:39;20.30;99.90
27413;DHT22;14871;52.702;5.230;2023-04-23T10:32:06;20.80;99.90
27413;DHT22;14871;52.702;5.230;2023-04-23T10:34:33;21.10;99.90
27413;DHT22;14871;52.702;5.230;2023-04-23T10:37:01;20.80;99.90
27413;DHT22;14871;52.702;5.230;2023-04-23T10:39:30;20.80;99.90
27413;DHT22;14871;52.702;5.230;2023-04-23T10:41:57;20.70;99.90
27413;DHT22;14871;52.702;5.230;2023-04-23T10:44:35;20.80;99.70
27413;DHT22;14871;52.702;5.230;2023-04-23T10:47:02;20.90;98.90
27413;DHT22;14871;52.702;5.230;2023-04-23T10:49:34;20.60;99.90
27413;DHT22;14871;52.702;5.230;2023-04-23T10:52:02;20.90;99.30
27413;DHT22;14871;52.702;5.230;2023-04-23T10:54:32;20.80;98.70
27413;DHT22;14871;52.702;5.230;2023-04-23T10:57:00;21.00;98.90
27413;DHT22;14871;52.702;5.230;2023-04-23T10:59:28;20.80;99.80
27413;DHT22;14871;52.702;5.230;2023-04-23T11:02:04;20.90;99.90
27413;DHT22;14871;52.702;5.230;2023-04-23T11:04:30;21.40;98.80
27413;DHT22;14871;52.702;5.230;2023-04-23T11:07:09;21.60;98.20
27413;DHT22;14871;52.702;5.230;2023-04-23T11:09:44;21.70;97.60
27413;DHT22;14871;52.702;5.230;2023-04-23T11:12:11;21.40;98.70
27413;DHT22;14871;52.702;5.230;2023-04-23T11:14:46;21.70;98.90
27413;DHT22;14871;52.702;5.230;2023-04-23T11:17:13;21.80;97.30
27413;DHT22;14871;52.702;5.230;2023-04-23T11:19:41;21.80;96.90
27413;DHT22;14871;52.702;5.230;2023-04-23T11:22:17;21.60;97.30
27413;DHT22;14871;52.702;5.230;2023-04-23T11:24:44;21.70;97.30
27413;DHT22;14871;52.702;5.230;2023-04-23T11:27:15;21.50;96.90
27413;DHT22;14871;52.702;5.230;2023-04-23T11:29:43;21.60;96.40
27413;DHT22;14871;52.702;5.230;2023-04-23T11:32:10;21.70;96.20
27413;DHT22;14871;52.702;5.230;2023-04-23T11:34:45;21.60;96.10
27413;DHT22;14871;52.702;5.230;2023-04-23T11:37:12;21.30;96.30
27413;DHT22;14871;52.702;5.230;2023-04-23T11:39:39;21.30;96.80
27413;DHT22;14871;52.702;5.230;2023-04-23T11:42:15;21.20;96.80
27413;DHT22;14871;52.702;5.230;2023-04-23T11:44:43;21.30;96.90
27413;DHT22;14871;52.702;5.230;2023-04-23T11:47:11;21.10;96.70
27413;DHT22;14871;52.702;5.230;2023-04-23T11:49:38;21.30;96.30
27413;DHT22;14871;52.702;5.230;2023-04-23T11:52:04;21.40;96.70
27413;DHT22;14871;52.702;5.230;2023-04-23T11:54:30;21.50;95.90
27413;DHT22;14871;52.702;5.230;2023-04-23T11:56:56;21.60;95.20
27413;DHT22;14871;52.702;5.230;2023-04-23T11:59:26;21.40;95.70
27413;DHT22;14871;52.702;5.230;2023-04-23T12:01:54;21.30;95.30
27413;DHT22;14871;52.702;5.230;2023-04-23T12:04:22;21.50;94.90
27413;DHT22;14871;52.702;5.230;2023-04-23T12:06:50;21.10;95.60
27413;DHT22;14871;52.702;5.230;2023-04-23T12:09:35;21.30;95.20
27413;DHT22;14871;52.702;5.230;2023-04-23T12:12:08;21.50;94.70
27413;DHT22;14871;52.702;5.230;2023-04-23T12:14:34;21.40;95.10
27413;DHT22;14871;52.702;5.230;2023-04-23T12:17:09;21.30;95.40
27413;DHT22;14871;52.702;5.230;2023-04-23T12:19:35;21.10;95.60
27413;DHT22;14871;52.702;5.230;2023-04-23T12:22:03;21.40;95.30
27413;DHT22;14871;52.702;5.230;2023-04-23T12:24:46;21.40;95.10
27413;DHT22;14871;52.702;5.230;2023-04-23T12:27:22;21.50;94.50
27413;DHT22;14871;52.702;5.230;2023-04-23T12:29:48;21.70;94.10
27413;DHT22;14871;52.702;5.230;2023-04-23T12:32:16;21.70;93.10
27413;DHT22;14871;52.702;5.230;2023-04-23T12:34:55;21.60;93.30
27413;DHT22;14871;52.702;5.230;2023-04-23T12:37:25;21.60;93.50
27413;DHT22;14871;52.702;5.230;2023-04-23T12:39:51;21.30;93.60
27413;DHT22;14871;52.702;5.230;2023-04-23T12:42:17;21.10;93.60
27413;DHT22;14871;52.702;5.230;2023-04-23T12:44:43;20.90;94.60
27413;DHT22;14871;52.702;5.230;2023-04-23T12:47:09;21.30;93.50
27413;DHT22;14871;52.702;5.230;2023-04-23T12:49:38;21.00;94.50
27413;DHT22;14871;52.702;5.230;2023-04-23T12:52:05;20.70;94.60
27413;DHT22;14871;52.702;5.230;2023-04-23T12:54:38;21.00;93.90
27413;DHT22;14871;52.702;5.230;2023-04-23T12:57:07;21.30;94.20
27413;DHT22;14871;52.702;5.230;2023-04-23T12:59:32;21.40;93.60
27413;DHT22;14871;52.702;5.230;2023-04-23T13:02:00;21.40;93.30
27413;DHT22;14871;52.702;5.230;2023-04-23T13:04:28;21.30;93.10
27413;DHT22;14871;52.702;5.230;2023-04-23T13:06:56;21.60;92.20
27413;DHT22;14871;52.702;5.230;2023-04-23T13:09:23;21.20;92.10
27413;DHT22;14871;52.702;5.230;2023-04-23T13:11:50;21.00;93.00
27413;DHT22;14871;52.702;5.230;2023-04-23T13:14:18;20.70;92.70
27413;DHT22;14871;52.702;5.230;2023-04-23T13:16:46;20.80;93.00
27413;DHT22;14871;52.702;5.230;2023-04-23T13:19:13;20.80;92.60
27413;DHT22;14871;52.702;5.230;2023-04-23T13:21:41;21.00;91.60
27413;DHT22;14871;52.702;5.230;2023-04-23T13:24:07;20.60;92.70
27413;DHT22;14871;52.702;5.230;2023-04-23T13:26:32;20.70;92.10
27413;DHT22;14871;52.702;5.230;2023-04-23T13:28:59;20.80;92.00
27413;DHT22;14871;52.702;5.230;2023-04-23T13:31:25;20.80;92.40
27413;DHT22;14871;52.702;5.230;2023-04-23T13:33:51;21.00;92.20
27413;DHT22;14871;52.702;5.230;2023-04-23T13:36:18;20.90;92.70
27413;DHT22;14871;52.702;5.230;2023-04-23T13:38:44;21.00;93.00
27413;DHT22;14871;52.702;5.230;2023-04-23T13:41:10;20.90;92.80
27413;DHT22;14871;52.702;5.230;2023-04-23T13:43:35;21.00;93.20
27413;DHT22;14871;52.702;5.230;2023-04-23T13:46:01;21.20;92.20
27413;DHT22;14871;52.702;5.230;2023-04-23T13:48:27;21.40;91.30
27413;DHT22;14871;52.702;5.230;2023-04-23T13:50:56;21.20;92.00
27413;DHT22;14871;52.702;5.230;2023-04-23T13:53:22;21.20;92.10
27413;DHT22;14871;52.702;5.230;2023-04-23T13:55:48;21.30;91.70
27413;DHT22;14871;52.702;5.230;2023-04-23T13:58:14;21.00;91.80
27413;DHT22;14871;52.702;5.230;2023-04-23T14:00:41;21.10;91.70
27413;DHT22;14871;52.702;5.230;2023-04-23T14:03:07;21.10;91.90
27413;DHT22;14871;52.702;5.230;2023-04-23T14:05:33;20.90;91.70
27413;DHT22;14871;52.702;5.230;2023-04-23T14:07:59;21.10;91.20
27413;DHT22;14871;52.702;5.230;2023-04-23T14:10:25;21.00;92.00
27413;DHT22;14871;52.702;5.230;2023-04-23T14:12:51;20.70;93.70
27413;DHT22;14871;52.702;5.230;2023-04-23T14:15:17;20.60;94.40
27413;DHT22;14871;52.702;5.230;2023-04-23T14:17:43;20.50;94.80
27413;DHT22;14871;52.702;5.230;2023-04-23T14:20:10;20.40;94.80
27413;DHT22;14871;52.702;5.230;2023-04-23T14:22:37;20.60;95.20
27413;DHT22;14871;52.702;5.230;2023-04-23T14:25:29;20.60;94.60
27413;DHT22;14871;52.702;5.230;2023-04-23T14:27:55;20.70;94.40
27413;DHT22;14871;52.702;5.230;2023-04-23T14:30:21;20.50;94.50
27413;DHT22;14871;52.702;5.230;2023-04-23T14:32:49;20.30;94.20
27413;DHT22;14871;52.702;5.230;2023-04-23T14:35:15;20.60;94.40
27413;DHT22;14871;52.702;5.230;2023-04-23T14:37:41;20.60;94.50
27413;DHT22;14871;52.702;5.230;2023-04-23T14:40:10;20.40;95.90
27413;DHT22;14871;52.702;5.230;2023-04-23T14:42:40;20.30;96.40
27413;DHT22;14871;52.702;5.230;2023-04-23T14:45:06;20.30;96.50
27413;DHT22;14871;52.702;5.230;2023-04-23T14:47:33;20.40;96.40
27413;DHT22;14871;52.702;5.230;2023-04-23T14:49:58;20.40;96.00
27413;DHT22;14871;52.702;5.230;2023-04-23T14:52:25;20.10;97.00
27413;DHT22;14871;52.702;5.230;2023-04-23T14:54:54;19.60;99.80
27413;DHT22;14871;52.702;5.230;2023-04-23T14:57:21;19.00;99.90
27413;DHT22;14871;52.702;5.230;2023-04-23T14:59:46;18.10;99.90
27413;DHT22;14871;52.702;5.230;2023-04-23T15:02:12;17.80;99.90
27413;DHT22;14871;52.702;5.230;2023-04-23T15:04:38;17.50;99.90
27413;DHT22;14871;52.702;5.230;2023-04-23T15:07:04;17.40;99.90
27413;DHT22;14871;52.702;5.230;2023-04-23T15:09:30;17.10;99.90
27413;DHT22;14871;52.702;5.230;2023-04-23T15:11:56;17.00;99.90
27413;DHT22;14871;52.702;5.230;2023-04-23T15:14:42;17.00;99.90
27413;DHT22;14871;52.702;5.230;2023-04-23T15:17:08;16.90;99.90
27413;DHT22;14871;52.702;5.230;2023-04-23T15:19:34;17.00;99.90
27413;DHT22;14871;52.702;5.230;2023-04-23T15:22:00;17.10;99.90
27413;DHT22;14871;52.702;5.230;2023-04-23T15:24:25;17.10;99.90
27413;DHT22;14871;52.702;5.230;2023-04-23T15:26:51;17.20;99.90
27413;DHT22;14871;52.702;5.230;2023-04-23T15:29:18;17.30;99.90